createdAt,value
2018-10-07T00:00:21.945Z,12.25
2018-10-07T00:00:53.045Z,12.95
2018-10-07T00:01:24.150Z,13.83
2018-10-07T00:01:55.283Z,13.80
2018-10-07T00:02:26.403Z,13.83
2018-10-07T00:02:57.513Z,14.13
2018-10-07T00:03:28.628Z,16.00
2018-10-07T00:03:59.734Z,16.45
2018-10-07T00:04:30.872Z,15.98
2018-10-07T00:05:01.982Z,16.73
2018-10-07T00:05:33.183Z,16.25
2018-10-07T00:06:04.287Z,16.23
2018-10-07T00:06:35.409Z,19.30
2018-10-07T00:07:06.517Z,19.30
2018-10-07T00:07:37.625Z,20.43
2018-10-07T00:08:08.757Z,20.88
2018-10-07T00:08:39.865Z,21.27
2018-10-07T00:09:10.984Z,21.75
2018-10-07T00:09:42.099Z,21.60
2018-10-07T00:10:13.226Z,21.80
2018-10-07T00:10:44.389Z,21.62
2018-10-07T00:11:15.547Z,22.55
2018-10-07T00:11:46.653Z,21.93
2018-10-07T00:12:17.785Z,22.00
2018-10-07T00:12:48.886Z,20.97
2018-10-07T00:13:20.014Z,20.97
2018-10-07T00:13:51.110Z,20.32
2018-10-07T00:14:22.214Z,20.70
2018-10-07T00:14:53.337Z,21.52
2018-10-07T00:15:24.463Z,21.30
2018-10-07T00:15:55.554Z,20.02
2018-10-07T00:16:26.661Z,21.27
2018-10-07T00:16:57.788Z,21.50
2018-10-07T00:17:28.945Z,22.82
2018-10-07T00:18:00.057Z,23.07
2018-10-07T00:18:31.195Z,24.77
2018-10-07T00:19:02.300Z,23.80
2018-10-07T00:19:33.421Z,23.20
2018-10-07T00:20:04.517Z,24.47
2018-10-07T00:20:35.614Z,24.92
2018-10-07T00:21:06.733Z,24.82
2018-10-07T00:21:37.854Z,24.85
2018-10-07T00:22:09.042Z,24.23
2018-10-07T00:22:40.155Z,23.87
2018-10-07T00:23:11.268Z,23.40
2018-10-07T00:23:42.387Z,24.72
2018-10-07T00:24:13.491Z,25.48
2018-10-07T00:24:44.585Z,24.25
2018-10-07T00:25:15.686Z,24.90
2018-10-07T00:25:46.804Z,24.43
2018-10-07T00:26:17.957Z,24.07
2018-10-07T00:26:49.066Z,24.02
2018-10-07T00:27:20.194Z,26.23
2018-10-07T00:27:51.299Z,25.50
2018-10-07T00:28:22.402Z,25.00
2018-10-07T00:28:53.502Z,25.48
2018-10-07T00:29:24.623Z,23.85
2018-10-07T00:29:55.727Z,26.40
2018-10-07T00:30:26.827Z,25.72
2018-10-07T00:30:57.960Z,26.23
2018-10-07T00:31:29.115Z,25.65
2018-10-07T00:32:00.251Z,24.80
2018-10-07T00:32:31.403Z,25.25
2018-10-07T00:33:02.539Z,26.50
2018-10-07T00:33:33.637Z,25.23
2018-10-07T00:34:04.750Z,25.60
2018-10-07T00:34:35.854Z,25.15
2018-10-07T00:35:06.961Z,25.75
2018-10-07T00:35:38.063Z,25.72
2018-10-07T00:36:09.164Z,25.27
2018-10-07T00:36:40.266Z,26.20
2018-10-07T00:37:11.436Z,26.12
2018-10-07T00:37:42.551Z,24.57
2018-10-07T00:38:13.663Z,25.68
2018-10-07T00:38:44.763Z,25.40
2018-10-07T00:39:15.884Z,26.02
2018-10-07T00:39:46.993Z,27.25
2018-10-07T00:40:18.125Z,27.73
2018-10-07T00:40:49.225Z,29.10
2018-10-07T00:41:20.335Z,30.30
2018-10-07T00:41:52.097Z,29.07
2018-10-07T00:42:23.275Z,34.45
2018-10-07T00:42:54.422Z,27.22
2018-10-07T00:43:25.534Z,26.80
2018-10-07T00:43:56.646Z,28.15
2018-10-07T00:44:27.789Z,29.10
2018-10-07T00:44:58.903Z,27.67
2018-10-07T00:45:30.090Z,29.27
2018-10-07T00:46:01.178Z,28.45
2018-10-07T00:46:32.310Z,26.48
2018-10-07T00:47:03.401Z,27.73
2018-10-07T00:47:34.567Z,28.98
2018-10-07T00:48:05.684Z,27.70
2018-10-07T00:48:36.806Z,28.75
2018-10-07T00:49:07.933Z,28.50
2018-10-07T00:49:39.043Z,28.87
2018-10-07T00:50:10.211Z,29.52
2018-10-07T00:50:41.426Z,28.47
2018-10-07T00:51:12.531Z,28.32
2018-10-07T00:51:43.625Z,29.52
2018-10-07T00:52:14.730Z,28.32
2018-10-07T00:52:45.907Z,30.30
2018-10-07T00:53:17.090Z,27.98
2018-10-07T00:53:48.199Z,29.60
2018-10-07T00:54:19.361Z,29.10
2018-10-07T00:54:50.469Z,29.52
2018-10-07T00:55:21.639Z,30.12
2018-10-07T00:55:52.778Z,29.45
2018-10-07T00:56:23.898Z,30.30
2018-10-07T00:56:55.028Z,30.57
2018-10-07T00:57:26.141Z,31.07
2018-10-07T00:57:57.252Z,31.30
2018-10-07T00:58:28.413Z,30.92
2018-10-07T00:58:59.547Z,29.40
2018-10-07T00:59:30.692Z,29.52
2018-10-07T01:00:01.814Z,30.25
2018-10-07T01:00:32.917Z,30.80
2018-10-07T01:01:04.041Z,28.73
2018-10-07T01:01:35.151Z,28.80
2018-10-07T01:02:06.321Z,30.17
2018-10-07T01:02:37.476Z,28.98
2018-10-07T01:03:08.583Z,30.48
2018-10-07T01:03:39.701Z,30.40
2018-10-07T01:04:10.821Z,33.13
2018-10-07T01:04:41.913Z,33.80
2018-10-07T01:05:13.011Z,32.60
2018-10-07T01:05:44.109Z,32.48
2018-10-07T01:06:15.209Z,33.85
2018-10-07T01:06:46.305Z,33.45
2018-10-07T01:07:17.463Z,31.52
2018-10-07T01:07:48.593Z,32.75
2018-10-07T01:08:19.711Z,32.65
2018-10-07T01:08:50.812Z,33.02
2018-10-07T01:09:21.903Z,32.80
2018-10-07T01:09:53.038Z,31.90
2018-10-07T01:10:24.159Z,32.67
2018-10-07T01:10:55.307Z,32.90
2018-10-07T01:11:26.406Z,33.40
2018-10-07T01:11:57.520Z,31.97
2018-10-07T01:12:28.661Z,31.62
2018-10-07T01:12:59.771Z,32.73
2018-10-07T01:13:30.877Z,32.40
2018-10-07T01:14:02.008Z,33.20
2018-10-07T01:14:33.115Z,33.30
2018-10-07T01:15:04.225Z,32.95
2018-10-07T01:15:35.339Z,33.23
2018-10-07T01:16:06.461Z,33.15
2018-10-07T01:16:37.569Z,33.13
2018-10-07T01:17:08.707Z,33.85
2018-10-07T01:17:39.802Z,34.03
2018-10-07T01:18:10.922Z,36.53
2018-10-07T01:18:42.020Z,34.83
2018-10-07T01:19:13.169Z,35.45
2018-10-07T01:19:44.266Z,35.20
2018-10-07T01:20:15.382Z,35.85
2018-10-07T01:20:46.484Z,34.80
2018-10-07T01:21:17.584Z,36.90
2018-10-07T01:21:48.722Z,36.53
2018-10-07T01:22:19.830Z,36.33
2018-10-07T01:22:50.949Z,37.95
2018-10-07T01:23:22.125Z,38.90
2018-10-07T01:23:53.223Z,38.42
2018-10-07T01:24:24.340Z,38.75
2018-10-07T01:24:55.433Z,39.00
2018-10-07T01:25:26.559Z,39.50
2018-10-07T01:25:57.693Z,39.53
2018-10-07T01:26:28.821Z,40.12
2018-10-07T01:26:59.937Z,39.83
2018-10-07T01:27:31.058Z,39.95
2018-10-07T01:28:02.150Z,39.53
2018-10-07T01:28:33.321Z,41.18
2018-10-07T01:29:04.426Z,41.08
2018-10-07T01:29:35.715Z,42.48
2018-10-07T01:30:06.822Z,43.00
2018-10-07T01:30:37.962Z,43.52
2018-10-07T01:31:09.079Z,45.88
2018-10-07T01:31:40.185Z,47.23
2018-10-07T01:32:11.291Z,44.77
2018-10-07T01:32:42.396Z,46.45
2018-10-07T01:33:13.524Z,45.30
2018-10-07T01:33:44.682Z,46.85
2018-10-07T01:34:15.789Z,45.70
2018-10-07T01:34:46.898Z,46.13
2018-10-07T01:35:18.019Z,47.00
2018-10-07T01:35:49.188Z,47.55
2018-10-07T01:36:20.305Z,47.65
2018-10-07T01:36:51.441Z,47.70
2018-10-07T01:37:22.567Z,45.90
2018-10-07T01:37:53.687Z,44.75
2018-10-07T01:38:24.827Z,46.33
2018-10-07T01:38:55.985Z,46.53
2018-10-07T01:39:27.128Z,46.48
2018-10-07T01:39:58.278Z,47.03
2018-10-07T01:40:29.427Z,45.45
2018-10-07T01:41:00.553Z,47.65
2018-10-07T01:41:31.680Z,48.78
2018-10-07T01:42:02.824Z,47.03
2018-10-07T01:42:33.945Z,48.98
2018-10-07T01:43:05.105Z,49.35
2018-10-07T01:43:36.254Z,47.88
2018-10-07T01:44:07.365Z,49.90
2018-10-07T01:44:38.474Z,49.10
2018-10-07T01:45:09.593Z,48.35
2018-10-07T01:45:40.773Z,47.93
2018-10-07T01:46:11.953Z,49.27
2018-10-07T01:46:43.088Z,48.73
2018-10-07T01:47:14.227Z,47.65
2018-10-07T01:47:45.385Z,51.30
2018-10-07T01:48:16.505Z,48.13
2018-10-07T01:48:47.637Z,49.18
2018-10-07T01:49:18.764Z,51.45
2018-10-07T01:49:49.891Z,47.93
2018-10-07T01:50:21.030Z,54.20
2018-10-07T01:50:52.178Z,51.88
2018-10-07T01:51:23.328Z,49.90
2018-10-07T01:51:54.437Z,49.65
2018-10-07T01:52:25.563Z,49.95
2018-10-07T01:52:56.718Z,47.60
2018-10-07T01:53:27.859Z,47.08
2018-10-07T01:53:58.965Z,46.33
2018-10-07T01:54:30.091Z,46.37
2018-10-07T01:55:01.233Z,44.67
2018-10-07T01:55:32.333Z,47.50
2018-10-07T01:56:03.436Z,45.65
2018-10-07T01:56:34.540Z,46.15
2018-10-07T01:57:05.651Z,46.23
2018-10-07T01:57:36.838Z,43.90
2018-10-07T01:58:08.004Z,45.48
2018-10-07T01:58:39.206Z,45.43
2018-10-07T01:59:10.374Z,47.33
2018-10-07T01:59:41.434Z,48.65
2018-10-07T02:00:12.569Z,48.13
2018-10-07T02:00:43.672Z,47.70
2018-10-07T02:01:14.873Z,52.03
2018-10-07T02:01:46.043Z,47.23
2018-10-07T02:02:17.160Z,49.00
2018-10-07T02:02:48.326Z,51.75
2018-10-07T02:03:19.466Z,54.08
2018-10-07T02:03:50.603Z,50.48
2018-10-07T02:04:21.722Z,57.33
2018-10-07T02:04:52.839Z,54.95
2018-10-07T02:05:23.943Z,50.12
2018-10-07T02:05:55.057Z,51.08
2018-10-07T02:06:26.154Z,51.05
2018-10-07T02:06:57.285Z,52.05
2018-10-07T02:07:28.452Z,52.23
2018-10-07T02:07:59.570Z,50.80
2018-10-07T02:08:30.670Z,50.33
2018-10-07T02:09:01.786Z,49.83
2018-10-07T02:09:32.953Z,51.02
2018-10-07T02:10:04.111Z,51.28
2018-10-07T02:10:35.303Z,51.40
2018-10-07T02:11:06.418Z,50.25
2018-10-07T02:11:37.662Z,50.20
2018-10-07T02:12:08.791Z,48.98
2018-10-07T02:12:39.910Z,50.60
2018-10-07T02:13:11.035Z,51.10
2018-10-07T02:13:42.198Z,51.83
2018-10-07T02:14:13.379Z,52.78
2018-10-07T02:14:44.483Z,50.50
2018-10-07T02:15:15.637Z,50.98
2018-10-07T02:15:46.754Z,53.85
2018-10-07T02:16:17.884Z,51.60
2018-10-07T02:17:26.411Z,60.33
2018-10-07T02:17:57.532Z,57.40
2018-10-07T02:18:28.675Z,55.33
2018-10-07T02:18:59.800Z,55.38
2018-10-07T02:19:30.913Z,55.58
2018-10-07T02:20:02.152Z,57.93
2018-10-07T02:20:33.389Z,57.15
2018-10-07T02:21:04.519Z,54.98
2018-10-07T02:21:35.658Z,52.38
2018-10-07T02:22:06.777Z,52.25
2018-10-07T02:22:37.892Z,50.88
2018-10-07T02:23:08.989Z,49.93
2018-10-07T02:23:40.110Z,51.60
2018-10-07T02:24:11.266Z,52.10
2018-10-07T02:24:42.427Z,52.65
2018-10-07T02:25:13.548Z,52.33
2018-10-07T02:25:44.735Z,51.65
2018-10-07T02:26:15.848Z,54.38
2018-10-07T02:26:47.002Z,52.85
2018-10-07T02:27:18.141Z,55.00
2018-10-07T02:27:49.299Z,57.58
2018-10-07T02:28:20.397Z,55.25
2018-10-07T02:28:51.538Z,56.63
2018-10-07T02:29:22.683Z,55.35
2018-10-07T02:29:53.849Z,57.43
2018-10-07T02:30:24.963Z,56.70
2018-10-07T02:30:56.077Z,55.92
2018-10-07T02:31:27.205Z,57.13
2018-10-07T02:31:58.348Z,56.58
2018-10-07T02:32:29.479Z,56.18
2018-10-07T02:33:00.593Z,57.10
2018-10-07T02:33:31.726Z,57.67
2018-10-07T02:34:02.877Z,58.38
2018-10-07T02:34:34.014Z,60.70
2018-10-07T02:35:05.187Z,56.50
2018-10-07T02:35:36.298Z,55.78
2018-10-07T02:36:07.430Z,59.33
2018-10-07T02:36:38.581Z,56.33
2018-10-07T02:37:09.779Z,56.37
2018-10-07T02:37:40.892Z,57.78
2018-10-07T02:38:12.015Z,56.75
2018-10-07T02:38:43.192Z,54.88
2018-10-07T02:39:14.296Z,52.90
2018-10-07T02:39:45.453Z,53.90
2018-10-07T02:40:16.637Z,53.70
2018-10-07T02:40:47.820Z,54.23
2018-10-07T02:41:18.932Z,54.23
2018-10-07T02:41:50.070Z,53.20
2018-10-07T02:42:21.250Z,54.13
2018-10-07T02:42:52.361Z,56.85
2018-10-07T02:43:23.581Z,55.78
2018-10-07T02:43:54.708Z,56.42
2018-10-07T02:44:25.842Z,55.08
2018-10-07T02:44:56.967Z,56.53
2018-10-07T02:45:28.129Z,58.68
2018-10-07T02:45:59.279Z,58.52
2018-10-07T02:46:30.394Z,60.50
2018-10-07T02:47:01.582Z,60.15
2018-10-07T02:47:32.689Z,61.42
2018-10-07T02:48:03.865Z,62.48
2018-10-07T02:48:34.997Z,62.50
2018-10-07T02:49:06.118Z,59.03
2018-10-07T02:49:37.282Z,60.25
2018-10-07T02:50:08.457Z,60.23
2018-10-07T02:50:39.613Z,62.27
2018-10-07T02:51:10.721Z,61.20
2018-10-07T02:51:41.821Z,57.70
2018-10-07T02:52:12.929Z,59.05
2018-10-07T02:52:44.092Z,56.58
2018-10-07T02:53:15.213Z,56.73
2018-10-07T02:53:46.350Z,55.65
2018-10-07T02:54:17.514Z,56.98
2018-10-07T02:54:48.689Z,55.65
2018-10-07T02:55:19.835Z,55.17
2018-10-07T02:55:51.018Z,58.95
2018-10-07T02:56:22.168Z,57.25
2018-10-07T02:56:53.278Z,56.33
2018-10-07T02:57:24.412Z,56.10
2018-10-07T02:57:55.542Z,56.85
2018-10-07T02:58:26.665Z,55.33
2018-10-07T02:58:57.793Z,56.15
2018-10-07T02:59:28.949Z,55.75
2018-10-07T03:00:00.061Z,54.58
2018-10-07T03:00:31.192Z,54.85
2018-10-07T03:01:02.304Z,54.18
2018-10-07T03:01:33.448Z,53.87
2018-10-07T03:02:04.599Z,54.00
2018-10-07T03:02:35.731Z,53.70
2018-10-07T03:03:06.861Z,53.68
2018-10-07T03:03:38.011Z,54.95
2018-10-07T03:04:09.153Z,52.00
2018-10-07T03:04:40.293Z,53.25
2018-10-07T03:05:11.521Z,60.38
2018-10-07T03:05:42.684Z,61.60
2018-10-07T03:06:13.818Z,58.17
2018-10-07T03:06:44.946Z,66.55
2018-10-07T03:07:16.096Z,58.20
2018-10-07T03:07:47.277Z,54.98
2018-10-07T03:08:18.423Z,54.25
2018-10-07T03:08:49.558Z,54.13
2018-10-07T03:09:20.754Z,51.92
2018-10-07T03:09:51.877Z,53.28
2018-10-07T03:10:23.049Z,51.18
2018-10-07T03:10:54.207Z,53.30
2018-10-07T03:11:25.334Z,52.70
2018-10-07T03:11:56.470Z,52.80
2018-10-07T03:12:27.590Z,53.68
2018-10-07T03:12:58.763Z,52.23
2018-10-07T03:13:29.878Z,53.80
2018-10-07T03:14:00.999Z,58.13
2018-10-07T03:14:32.166Z,57.90
2018-10-07T03:15:03.332Z,58.98
2018-10-07T03:15:34.477Z,57.43
2018-10-07T03:16:05.653Z,55.43
2018-10-07T03:16:36.752Z,54.18
2018-10-07T03:17:07.908Z,53.25
2018-10-07T03:17:39.026Z,52.30
2018-10-07T03:18:10.203Z,52.85
2018-10-07T03:18:41.354Z,51.73
2018-10-07T03:19:12.476Z,50.03
2018-10-07T03:19:43.581Z,51.80
2018-10-07T03:20:14.687Z,48.92
2018-10-07T03:20:45.785Z,50.08
2018-10-07T03:21:16.898Z,49.83
2018-10-07T03:21:48.045Z,50.88
2018-10-07T03:22:19.186Z,51.40
2018-10-07T03:22:50.310Z,51.08
2018-10-07T03:23:21.415Z,51.08
2018-10-07T03:23:52.571Z,52.27
2018-10-07T03:24:23.676Z,52.53
2018-10-07T03:24:54.818Z,52.38
2018-10-07T03:25:25.964Z,51.92
2018-10-07T03:25:57.096Z,52.60
2018-10-07T03:26:28.197Z,52.70
2018-10-07T03:26:59.305Z,53.00
2018-10-07T03:27:30.478Z,55.48
2018-10-07T03:28:01.613Z,55.03
2018-10-07T03:28:32.732Z,55.50
2018-10-07T03:29:03.896Z,55.48
2018-10-07T03:29:35.042Z,56.80
2018-10-07T03:30:06.237Z,57.08
2018-10-07T03:30:37.384Z,58.78
2018-10-07T03:31:08.534Z,70.80
2018-10-07T03:31:39.675Z,61.63
2018-10-07T03:32:10.820Z,60.20
2018-10-07T03:32:41.952Z,58.48
2018-10-07T03:33:13.075Z,56.02
2018-10-07T03:33:44.217Z,56.83
2018-10-07T03:34:15.442Z,54.55
2018-10-07T03:34:46.569Z,54.42
2018-10-07T03:35:17.754Z,54.73
2018-10-07T03:35:48.883Z,53.55
2018-10-07T03:36:19.996Z,54.15
2018-10-07T03:36:51.153Z,55.92
2018-10-07T03:37:22.261Z,53.68
2018-10-07T03:37:53.387Z,56.98
2018-10-07T03:38:24.498Z,54.98
2018-10-07T03:38:55.673Z,56.25
2018-10-07T03:39:26.812Z,57.83
2018-10-07T03:39:58.026Z,56.37
2018-10-07T03:40:29.191Z,57.35
2018-10-07T03:41:00.307Z,56.75
2018-10-07T03:41:31.431Z,58.10
2018-10-07T03:42:02.546Z,57.25
2018-10-07T03:42:33.659Z,57.40
2018-10-07T03:43:04.816Z,56.40
2018-10-07T03:43:35.942Z,58.38
2018-10-07T03:44:07.117Z,59.45
2018-10-07T03:44:38.270Z,59.08
2018-10-07T03:45:09.388Z,59.95
2018-10-07T03:45:40.497Z,61.33
2018-10-07T03:46:11.618Z,62.27
2018-10-07T03:46:42.747Z,65.60
2018-10-07T03:47:13.867Z,63.13
2018-10-07T03:47:44.975Z,63.13
2018-10-07T03:48:16.129Z,63.78
2018-10-07T03:48:47.278Z,62.88
2018-10-07T03:49:18.369Z,62.53
2018-10-07T03:49:49.513Z,64.58
2018-10-07T03:50:20.647Z,63.25
2018-10-07T03:50:51.758Z,63.55
2018-10-07T03:51:23.187Z,64.15
2018-10-07T03:51:54.439Z,65.42
2018-10-07T03:52:25.543Z,63.28
2018-10-07T03:52:56.666Z,60.40
2018-10-07T03:53:27.770Z,61.58
2018-10-07T03:53:58.926Z,59.73
2018-10-07T03:54:30.111Z,60.08
2018-10-07T03:55:01.225Z,65.00
2018-10-07T03:55:32.408Z,64.55
2018-10-07T03:56:03.561Z,62.73
2018-10-07T03:56:34.699Z,64.15
2018-10-07T03:57:05.873Z,63.17
2018-10-07T03:57:37.014Z,62.45
2018-10-07T03:58:08.133Z,62.08
2018-10-07T03:58:39.337Z,62.08
2018-10-07T03:59:10.512Z,63.80
2018-10-07T03:59:41.612Z,68.47
2018-10-07T04:00:12.733Z,70.92
2018-10-07T04:00:43.984Z,68.20
2018-10-07T04:01:15.121Z,69.47
2018-10-07T04:01:46.231Z,67.62
2018-10-07T04:02:17.379Z,64.27
2018-10-07T04:02:48.502Z,60.90
2018-10-07T04:03:19.678Z,63.05
2018-10-07T04:03:50.883Z,63.55
2018-10-07T04:04:22.040Z,63.42
2018-10-07T04:04:53.209Z,61.23
2018-10-07T04:05:24.334Z,62.35
2018-10-07T04:05:55.436Z,63.08
2018-10-07T04:06:26.575Z,61.30
2018-10-07T04:06:57.692Z,62.13
2018-10-07T04:07:28.869Z,68.50
2018-10-07T04:07:59.991Z,64.77
2018-10-07T04:08:31.133Z,64.62
2018-10-07T04:09:02.338Z,68.70
2018-10-07T04:09:33.435Z,68.75
2018-10-07T04:10:04.590Z,66.90
2018-10-07T04:10:35.703Z,64.77
2018-10-07T04:11:06.851Z,67.92
2018-10-07T04:11:38.027Z,64.92
2018-10-07T04:12:09.158Z,66.97
2018-10-07T04:12:40.278Z,69.55
2018-10-07T04:13:11.396Z,64.82
2018-10-07T04:13:42.575Z,62.83
2018-10-07T04:14:13.679Z,64.80
2018-10-07T04:14:44.808Z,60.85
2018-10-07T04:15:15.917Z,62.98
2018-10-07T04:15:47.031Z,60.65
2018-10-07T04:16:18.160Z,60.10
2018-10-07T04:16:49.334Z,61.28
2018-10-07T04:17:20.487Z,63.17
2018-10-07T04:17:51.644Z,61.08
2018-10-07T04:18:22.806Z,62.90
2018-10-07T04:18:53.919Z,66.70
2018-10-07T04:19:25.031Z,63.25
2018-10-07T04:19:56.197Z,63.13
2018-10-07T04:20:27.346Z,63.65
2018-10-07T04:20:58.447Z,66.45
2018-10-07T04:21:29.597Z,65.57
2018-10-07T04:22:00.752Z,68.30
2018-10-07T04:22:31.884Z,65.00
2018-10-07T04:23:03.069Z,63.20
2018-10-07T04:23:34.195Z,62.35
2018-10-07T04:24:05.305Z,62.30
2018-10-07T04:24:36.419Z,60.20
2018-10-07T04:25:07.549Z,59.45
2018-10-07T04:25:38.696Z,58.73
2018-10-07T04:26:09.819Z,56.98
2018-10-07T04:26:40.984Z,55.38
2018-10-07T04:27:12.159Z,54.75
2018-10-07T04:27:43.271Z,55.60
2018-10-07T04:28:14.373Z,55.20
2018-10-07T04:28:45.518Z,55.28
2018-10-07T04:29:16.660Z,58.10
2018-10-07T04:29:47.769Z,55.80
2018-10-07T04:30:18.949Z,56.53
2018-10-07T04:30:50.060Z,57.88
2018-10-07T04:31:21.171Z,56.80
2018-10-07T04:31:52.276Z,53.80
2018-10-07T04:32:23.388Z,53.20
2018-10-07T04:32:54.521Z,52.17
2018-10-07T04:33:25.652Z,53.25
2018-10-07T04:33:56.821Z,54.18
2018-10-07T04:34:27.932Z,53.78
2018-10-07T04:34:59.097Z,52.62
2018-10-07T04:35:30.314Z,52.23
2018-10-07T04:36:01.429Z,51.70
2018-10-07T04:36:32.544Z,54.35
2018-10-07T04:37:03.748Z,52.62
2018-10-07T04:37:34.837Z,52.23
2018-10-07T04:38:05.946Z,49.90
2018-10-07T04:38:37.079Z,51.02
2018-10-07T04:39:08.257Z,50.43
2018-10-07T04:39:39.533Z,49.18
2018-10-07T04:40:10.679Z,48.52
2018-10-07T04:40:41.865Z,47.62
2018-10-07T04:41:12.995Z,46.35
2018-10-07T04:41:44.108Z,44.33
2018-10-07T04:42:15.205Z,45.08
2018-10-07T04:42:46.351Z,44.65
2018-10-07T04:43:17.468Z,41.70
2018-10-07T04:43:48.601Z,44.70
2018-10-07T04:44:19.736Z,44.60
2018-10-07T04:44:50.865Z,43.63
2018-10-07T04:45:22.010Z,42.85
2018-10-07T04:45:53.157Z,42.93
2018-10-07T04:46:24.295Z,43.63
2018-10-07T04:46:55.512Z,42.08
2018-10-07T04:47:26.663Z,43.60
2018-10-07T04:47:57.801Z,42.80
2018-10-07T04:48:28.979Z,43.35
2018-10-07T04:49:00.088Z,41.40
2018-10-07T04:49:31.213Z,41.08
2018-10-07T04:50:02.326Z,41.33
2018-10-07T04:50:33.470Z,41.77
2018-10-07T04:51:04.609Z,39.65
2018-10-07T04:51:35.728Z,41.35
2018-10-07T04:52:06.862Z,41.30
2018-10-07T04:52:37.982Z,40.85
2018-10-07T04:53:09.106Z,40.10
2018-10-07T04:53:40.282Z,41.80
2018-10-07T04:54:11.427Z,39.27
2018-10-07T04:54:42.618Z,40.20
2018-10-07T04:55:13.733Z,39.45
2018-10-07T04:55:44.877Z,39.85
2018-10-07T04:56:15.989Z,37.75
2018-10-07T04:56:47.209Z,37.60
2018-10-07T04:57:18.466Z,37.98
2018-10-07T04:57:49.597Z,36.77
2018-10-07T04:58:20.747Z,35.40
2018-10-07T04:58:51.905Z,36.53
2018-10-07T04:59:23.119Z,36.10
2018-10-07T04:59:56.757Z,35.05
2018-10-07T05:00:27.943Z,34.98
2018-10-07T05:00:59.082Z,37.10
2018-10-07T05:01:30.212Z,35.00
2018-10-07T05:02:01.328Z,35.75
2018-10-07T05:02:32.505Z,35.90
2018-10-07T05:03:03.653Z,36.58
2018-10-07T05:03:34.785Z,35.15
2018-10-07T05:04:05.974Z,35.63
2018-10-07T05:04:37.120Z,37.48
2018-10-07T05:05:08.316Z,37.78
2018-10-07T05:05:39.471Z,34.23
2018-10-07T05:06:10.611Z,40.35
2018-10-07T05:06:41.813Z,35.25
2018-10-07T05:07:12.956Z,34.40
2018-10-07T05:07:44.072Z,32.42
2018-10-07T05:08:15.300Z,32.80
2018-10-07T05:08:46.456Z,33.10
2018-10-07T05:09:17.651Z,33.40
2018-10-07T05:09:48.789Z,33.92
2018-10-07T05:10:19.998Z,31.82
2018-10-07T05:10:51.175Z,32.70
2018-10-07T05:11:22.363Z,36.17
2018-10-07T05:11:53.678Z,34.63
2018-10-07T05:12:24.857Z,34.80
2018-10-07T05:12:55.969Z,34.75
2018-10-07T05:13:30.137Z,34.58
2018-10-07T05:14:01.250Z,32.90
2018-10-07T05:14:32.362Z,33.80
2018-10-07T05:15:03.473Z,33.13
2018-10-07T05:15:35.411Z,34.45
2018-10-07T05:16:06.553Z,35.17
2018-10-07T05:16:37.657Z,35.73
2018-10-07T05:17:08.792Z,32.60
2018-10-07T05:17:40.034Z,33.53
2018-10-07T05:18:11.142Z,33.02
2018-10-07T05:18:42.296Z,31.02
2018-10-07T05:19:13.500Z,31.60
2018-10-07T05:19:44.631Z,33.88
2018-10-07T05:20:15.784Z,32.30
2018-10-07T05:20:47.006Z,30.02
2018-10-07T05:21:18.096Z,29.92
2018-10-07T05:21:49.222Z,31.55
2018-10-07T05:22:20.339Z,31.07
2018-10-07T05:22:51.438Z,30.60
2018-10-07T05:23:22.618Z,31.05
2018-10-07T05:23:53.749Z,31.77
2018-10-07T05:24:24.892Z,31.55
2018-10-07T05:24:56.005Z,32.35
2018-10-07T05:25:27.183Z,34.27
2018-10-07T05:25:58.309Z,32.50
2018-10-07T05:26:29.439Z,32.55
2018-10-07T05:27:00.553Z,32.33
2018-10-07T05:27:31.766Z,33.60
2018-10-07T05:28:02.935Z,30.88
2018-10-07T05:28:34.041Z,31.73
2018-10-07T05:29:05.156Z,31.23
2018-10-07T05:29:36.354Z,32.58
2018-10-07T05:30:07.466Z,32.10
2018-10-07T05:30:38.611Z,32.93
2018-10-07T05:31:09.762Z,31.90
2018-10-07T05:31:40.923Z,32.63
2018-10-07T05:32:12.063Z,30.60
2018-10-07T05:32:43.224Z,30.80
2018-10-07T05:33:14.338Z,30.45
2018-10-07T05:33:45.464Z,30.92
2018-10-07T05:34:16.578Z,30.02
2018-10-07T05:34:47.753Z,31.45
2018-10-07T05:35:18.890Z,31.65
2018-10-07T05:35:49.998Z,32.83
2018-10-07T05:36:21.111Z,31.95
2018-10-07T05:36:52.208Z,32.67
2018-10-07T05:37:23.313Z,31.97
2018-10-07T05:37:54.456Z,32.25
2018-10-07T05:38:25.595Z,31.00
2018-10-07T05:38:56.705Z,30.35
2018-10-07T05:39:27.819Z,30.25
2018-10-07T05:39:58.943Z,30.85
2018-10-07T05:40:30.063Z,32.53
2018-10-07T05:41:01.175Z,31.02
2018-10-07T05:41:32.333Z,31.60
2018-10-07T05:42:03.463Z,31.90
2018-10-07T05:42:34.568Z,32.88
2018-10-07T05:43:05.740Z,32.45
2018-10-07T05:43:36.856Z,32.13
2018-10-07T05:44:08.024Z,31.02
2018-10-07T05:44:39.155Z,30.15
2018-10-07T05:45:10.250Z,31.75
2018-10-07T05:45:41.358Z,33.13
2018-10-07T05:46:12.498Z,32.85
2018-10-07T05:46:43.639Z,31.40
2018-10-07T05:47:14.741Z,32.10
2018-10-07T05:47:45.845Z,31.42
2018-10-07T05:48:16.958Z,32.73
2018-10-07T05:48:48.095Z,30.75
2018-10-07T05:49:19.237Z,28.62
2018-10-07T05:49:50.406Z,29.87
2018-10-07T05:50:21.599Z,30.08
2018-10-07T05:50:52.783Z,31.42
2018-10-07T05:51:24.000Z,30.97
2018-10-07T05:51:55.110Z,26.87
2018-10-07T05:52:26.238Z,27.50
2018-10-07T05:52:57.347Z,28.95
2018-10-07T05:53:28.455Z,28.73
2018-10-07T05:54:46.674Z,27.05
2018-10-07T05:55:17.817Z,27.52
2018-10-07T05:55:49.040Z,28.15
2018-10-07T05:56:20.115Z,30.62
2018-10-07T05:56:51.268Z,29.00
2018-10-07T05:57:22.377Z,29.42
2018-10-07T05:57:53.502Z,27.05
2018-10-07T05:58:24.635Z,28.57
2018-10-07T05:58:55.754Z,25.48
2018-10-07T05:59:26.883Z,27.77
2018-10-07T05:59:58.122Z,27.42
2018-10-07T06:00:29.276Z,26.62
2018-10-07T06:01:00.457Z,25.23
2018-10-07T06:01:31.655Z,27.05
2018-10-07T06:02:02.767Z,25.97
2018-10-07T06:02:33.900Z,25.70
2018-10-07T06:03:05.010Z,25.48
2018-10-07T06:03:36.135Z,24.95
2018-10-07T06:04:07.312Z,24.65
2018-10-07T06:04:38.494Z,24.85
2018-10-07T06:05:10.395Z,22.45
2018-10-07T06:05:41.519Z,20.88
2018-10-07T06:06:13.601Z,22.10
2018-10-07T06:06:44.711Z,20.25
2018-10-07T06:07:15.862Z,21.42
2018-10-07T06:07:46.974Z,19.75
2018-10-07T06:08:18.106Z,22.00
2018-10-07T06:08:49.202Z,20.32
2018-10-07T06:09:20.331Z,20.55
2018-10-07T06:09:51.570Z,21.17
2018-10-07T06:10:22.711Z,21.65
2018-10-07T06:10:53.830Z,21.42
2018-10-07T06:11:24.972Z,22.87
2018-10-07T06:11:56.164Z,23.92
2018-10-07T06:12:27.277Z,22.60
2018-10-07T06:12:58.382Z,22.82
2018-10-07T06:13:29.516Z,21.82
2018-10-07T06:14:00.784Z,22.50
2018-10-07T06:14:31.915Z,23.38
2018-10-07T06:15:03.092Z,23.32
2018-10-07T06:15:34.246Z,23.80
2018-10-07T06:16:05.476Z,25.15
2018-10-07T06:16:36.616Z,24.77
2018-10-07T06:17:07.746Z,23.40
2018-10-07T06:17:38.894Z,24.47
2018-10-07T06:18:10.025Z,25.82
2018-10-07T06:18:41.223Z,26.07
2018-10-07T06:19:12.436Z,25.10
2018-10-07T06:19:43.563Z,27.80
2018-10-07T06:20:14.744Z,26.65
2018-10-07T06:20:45.911Z,25.52
2018-10-07T06:21:17.135Z,25.57
2018-10-07T06:21:48.243Z,24.95
2018-10-07T06:22:19.381Z,23.85
2018-10-07T06:22:50.505Z,22.25
2018-10-07T06:23:21.626Z,22.37
2018-10-07T06:23:52.794Z,22.50
2018-10-07T06:24:23.908Z,22.77
2018-10-07T06:24:55.023Z,23.10
2018-10-07T06:25:26.166Z,22.30
2018-10-07T06:25:57.327Z,21.75
2018-10-07T06:26:28.434Z,21.93
2018-10-07T06:26:59.548Z,21.35
2018-10-07T06:27:30.722Z,21.62
2018-10-07T06:28:01.921Z,21.37
2018-10-07T06:28:33.063Z,21.27
2018-10-07T06:29:05.419Z,22.02
2018-10-07T06:29:36.656Z,21.50
2018-10-07T06:30:07.798Z,21.40
2018-10-07T06:30:38.927Z,21.00
2018-10-07T06:31:10.056Z,22.25
2018-10-07T06:31:41.167Z,19.92
2018-10-07T06:32:12.365Z,20.17
2018-10-07T06:32:43.487Z,20.85
2018-10-07T06:33:14.642Z,20.85
2018-10-07T06:33:45.789Z,20.77
2018-10-07T06:34:16.978Z,20.12
2018-10-07T06:34:48.125Z,20.90
2018-10-07T06:35:19.244Z,21.60
2018-10-07T06:35:50.376Z,20.50
2018-10-07T06:36:21.503Z,20.85
2018-10-07T06:36:52.672Z,20.95
2018-10-07T06:37:23.848Z,21.97
2018-10-07T06:37:54.971Z,21.60
2018-10-07T06:38:26.093Z,22.25
2018-10-07T06:38:57.224Z,22.25
2018-10-07T06:39:28.374Z,20.88
2018-10-07T06:39:59.606Z,21.65
2018-10-07T06:40:30.758Z,20.92
2018-10-07T06:41:01.927Z,20.60
2018-10-07T06:41:33.094Z,21.00
2018-10-07T06:42:04.254Z,21.60
2018-10-07T06:42:35.369Z,20.85